sensor_id;sensor_type;location;lat;lon;timestamp;temperature;humidity
5286;DHT22;2665;53.112;7.358;2023-05-17T00:01:04;8.30;1.00
5286;DHT22;2665;53.112;7.358;2023-05-17T00:03:30;8.10;5.60
5286;DHT22;2665;53.112;7.358;2023-05-17T00:05:56;8.00;21.20
5286;DHT22;2665;53.112;7.358;2023-05-17T00:08:21;8.00;99.90
5286;DHT22;2665;53.112;7.358;2023-05-17T00:10:47;7.90;99.90
5286;DHT22;2665;53.112;7.358;2023-05-17T00:13:12;7.90;99.90
5286;DHT22;2665;53.112;7.358;2023-05-17T00:15:38;7.80;1.00
5286;DHT22;2665;53.112;7.358;2023-05-17T00:18:04;7.80;99.90
5286;DHT22;2665;53.112;7.358;2023-05-17T00:20:29;7.80;99.90
5286;DHT22;2665;53.112;7.358;2023-05-17T00:22:55;7.80;99.90
5286;DHT22;2665;53.112;7.358;2023-05-17T00:25:20;7.80;99.90
5286;DHT22;2665;53.112;7.358;2023-05-17T00:27:46;7.80;99.90
5286;DHT22;2665;53.112;7.358;2023-05-17T00:30:12;7.70;99.90
5286;DHT22;2665;53.112;7.358;2023-05-17T00:32:38;7.70;99.90
5286;DHT22;2665;53.112;7.358;2023-05-17T00:35:04;7.70;99.90
5286;DHT22;2665;53.112;7.358;2023-05-17T00:37:30;7.70;1.00
5286;DHT22;2665;53.112;7.358;2023-05-17T00:39:55;7.70;99.90
5286;DHT22;2665;53.112;7.358;2023-05-17T00:42:21;7.80;62.20
5286;DHT22;2665;53.112;7.358;2023-05-17T00:44:47;7.70;1.00
5286;DHT22;2665;53.112;7.358;2023-05-17T00:47:12;7.70;1.00
5286;DHT22;2665;53.112;7.358;2023-05-17T00:49:38;7.70;1.00
5286;DHT22;2665;53.112;7.358;2023-05-17T00:52:04;7.70;1.00
5286;DHT22;2665;53.112;7.358;2023-05-17T00:54:30;7.70;1.00
5286;DHT22;2665;53.112;7.358;2023-05-17T00:56:56;7.70;1.00
5286;DHT22;2665;53.112;7.358;2023-05-17T00:59:22;7.70;1.00
5286;DHT22;2665;53.112;7.358;2023-05-17T01:01:49;7.70;1.00
5286;DHT22;2665;53.112;7.358;2023-05-17T01:04:15;7.80;1.00
5286;DHT22;2665;53.112;7.358;2023-05-17T01:06:41;7.80;99.90
5286;DHT22;2665;53.112;7.358;2023-05-17T01:09:07;7.80;1.00
5286;DHT22;2665;53.112;7.358;2023-05-17T01:14:25;7.80;1.00
5286;DHT22;2665;53.112;7.358;2023-05-17T01:17:00;7.90;99.90
5286;DHT22;2665;53.112;7.358;2023-05-17T01:20:04;7.80;99.90
5286;DHT22;2665;53.112;7.358;2023-05-17T01:25:26;7.70;99.90
5286;DHT22;2665;53.112;7.358;2023-05-17T01:27:56;7.60;99.90
5286;DHT22;2665;53.112;7.358;2023-05-17T01:30:24;7.60;99.90
5286;DHT22;2665;53.112;7.358;2023-05-17T01:32:52;7.60;1.00
5286;DHT22;2665;53.112;7.358;2023-05-17T01:35:19;7.60;91.90
5286;DHT22;2665;53.112;7.358;2023-05-17T01:37:45;7.60;99.90
5286;DHT22;2665;53.112;7.358;2023-05-17T01:40:10;7.60;99.90
5286;DHT22;2665;53.112;7.358;2023-05-17T01:42:38;7.70;99.90
5286;DHT22;2665;53.112;7.358;2023-05-17T01:45:43;7.70;99.90
5286;DHT22;2665;53.112;7.358;2023-05-17T01:48:22;7.70;1.00
5286;DHT22;2665;53.112;7.358;2023-05-17T01:50:51;7.80;1.00
5286;DHT22;2665;53.112;7.358;2023-05-17T01:53:29;7.80;1.00
5286;DHT22;2665;53.112;7.358;2023-05-17T01:56:02;7.80;1.00
5286;DHT22;2665;53.112;7.358;2023-05-17T01:58:29;7.90;1.00
5286;DHT22;2665;53.112;7.358;2023-05-17T02:00:57;7.90;1.00
5286;DHT22;2665;53.112;7.358;2023-05-17T02:03:23;7.90;1.00
5286;DHT22;2665;53.112;7.358;2023-05-17T02:05:49;7.90;1.00
5286;DHT22;2665;53.112;7.358;2023-05-17T02:08:14;7.90;1.00
5286;DHT22;2665;53.112;7.358;2023-05-17T02:10:40;7.90;99.90
5286;DHT22;2665;53.112;7.358;2023-05-17T02:13:06;7.90;1.00
5286;DHT22;2665;53.112;7.358;2023-05-17T02:15:31;7.90;1.00
5286;DHT22;2665;53.112;7.358;2023-05-17T02:17:57;8.00;99.90
5286;DHT22;2665;53.112;7.358;2023-05-17T02:20:23;7.90;99.90
5286;DHT22;2665;53.112;7.358;2023-05-17T02:22:48;7.90;99.90
5286;DHT22;2665;53.112;7.358;2023-05-17T02:25:15;7.80;99.90
5286;DHT22;2665;53.112;7.358;2023-05-17T02:27:40;7.80;99.90
5286;DHT22;2665;53.112;7.358;2023-05-17T02:30:06;7.80;1.00
5286;DHT22;2665;53.112;7.358;2023-05-17T02:32:32;7.80;99.90
5286;DHT22;2665;53.112;7.358;2023-05-17T02:34:58;7.90;99.90
5286;DHT22;2665;53.112;7.358;2023-05-17T02:37:24;7.90;99.90
5286;DHT22;2665;53.112;7.358;2023-05-17T02:39:50;8.00;1.00
5286;DHT22;2665;53.112;7.358;2023-05-17T02:42:16;8.00;1.00
5286;DHT22;2665;53.112;7.358;2023-05-17T02:44:41;8.00;1.00
5286;DHT22;2665;53.112;7.358;2023-05-17T02:47:07;8.00;2.50
5286;DHT22;2665;53.112;7.358;2023-05-17T02:49:33;8.00;1.00
5286;DHT22;2665;53.112;7.358;2023-05-17T02:51:58;8.00;1.00
5286;DHT22;2665;53.112;7.358;2023-05-17T02:54:25;8.00;99.90
5286;DHT22;2665;53.112;7.358;2023-05-17T02:56:50;8.00;1.00
5286;DHT22;2665;53.112;7.358;2023-05-17T02:59:16;7.90;1.00
5286;DHT22;2665;53.112;7.358;2023-05-17T03:01:42;8.00;1.00
5286;DHT22;2665;53.112;7.358;2023-05-17T03:04:07;7.90;1.00
5286;DHT22;2665;53.112;7.358;2023-05-17T03:06:33;7.80;99.90
5286;DHT22;2665;53.112;7.358;2023-05-17T03:09:02;7.70;99.90
5286;DHT22;2665;53.112;7.358;2023-05-17T03:11:27;7.60;99.90
5286;DHT22;2665;53.112;7.358;2023-05-17T03:13:53;7.60;99.90
5286;DHT22;2665;53.112;7.358;2023-05-17T03:16:18;7.50;99.90
5286;DHT22;2665;53.112;7.358;2023-05-17T03:18:45;7.50;99.90
5286;DHT22;2665;53.112;7.358;2023-05-17T03:21:10;7.50;99.90
5286;DHT22;2665;53.112;7.358;2023-05-17T03:23:36;7.60;99.90
5286;DHT22;2665;53.112;7.358;2023-05-17T03:26:01;7.60;67.40
5286;DHT22;2665;53.112;7.358;2023-05-17T03:28:27;7.60;1.00
5286;DHT22;2665;53.112;7.358;2023-05-17T03:30:53;7.60;1.00
5286;DHT22;2665;53.112;7.358;2023-05-17T03:33:18;7.60;1.00
5286;DHT22;2665;53.112;7.358;2023-05-17T03:35:44;7.60;1.00
5286;DHT22;2665;53.112;7.358;2023-05-17T03:38:11;7.60;99.90
5286;DHT22;2665;53.112;7.358;2023-05-17T03:40:37;7.60;99.90
5286;DHT22;2665;53.112;7.358;2023-05-17T03:43:02;7.70;99.90
5286;DHT22;2665;53.112;7.358;2023-05-17T03:45:28;7.60;99.90
5286;DHT22;2665;53.112;7.358;2023-05-17T03:47:54;7.60;99.90
5286;DHT22;2665;53.112;7.358;2023-05-17T03:50:19;7.70;99.90
5286;DHT22;2665;53.112;7.358;2023-05-17T03:52:45;7.70;99.90
5286;DHT22;2665;53.112;7.358;2023-05-17T03:55:11;7.70;99.90
5286;DHT22;2665;53.112;7.358;2023-05-17T03:57:36;7.70;99.90
5286;DHT22;2665;53.112;7.358;2023-05-17T04:00:02;7.70;99.90
5286;DHT22;2665;53.112;7.358;2023-05-17T04:02:31;7.70;1.00
5286;DHT22;2665;53.112;7.358;2023-05-17T04:04:57;7.80;1.00
5286;DHT22;2665;53.112;7.358;2023-05-17T04:07:22;7.80;1.00
5286;DHT22;2665;53.112;7.358;2023-05-17T04:09:48;7.80;1.00
5286;DHT22;2665;53.112;7.358;2023-05-17T04:12:14;7.80;99.90
5286;DHT22;2665;53.112;7.358;2023-05-17T04:14:39;7.80;99.90
5286;DHT22;2665;53.112;7.358;2023-05-17T04:17:05;7.80;87.80
5286;DHT22;2665;53.112;7.358;2023-05-17T04:19:31;7.90;73.70
5286;DHT22;2665;53.112;7.358;2023-05-17T04:21:56;7.90;1.00
5286;DHT22;2665;53.112;7.358;2023-05-17T04:24:22;7.90;1.00
5286;DHT22;2665;53.112;7.358;2023-05-17T04:26:48;7.90;1.00
5286;DHT22;2665;53.112;7.358;2023-05-17T04:29:13;8.00;1.00
5286;DHT22;2665;53.112;7.358;2023-05-17T04:31:39;8.00;1.00
5286;DHT22;2665;53.112;7.358;2023-05-17T04:34:05;8.00;99.90
5286;DHT22;2665;53.112;7.358;2023-05-17T04:36:30;8.00;99.90
5286;DHT22;2665;53.112;7.358;2023-05-17T04:38:56;8.10;1.00
5286;DHT22;2665;53.112;7.358;2023-05-17T04:41:22;8.10;1.00
5286;DHT22;2665;53.112;7.358;2023-05-17T04:43:48;8.10;99.90
5286;DHT22;2665;53.112;7.358;2023-05-17T04:46:13;8.20;72.10
5286;DHT22;2665;53.112;7.358;2023-05-17T04:48:39;8.20;1.00
5286;DHT22;2665;53.112;7.358;2023-05-17T04:51:05;8.20;1.00
5286;DHT22;2665;53.112;7.358;2023-05-17T04:53:31;8.20;1.00
5286;DHT22;2665;53.112;7.358;2023-05-17T04:55:57;8.20;99.90
5286;DHT22;2665;53.112;7.358;2023-05-17T04:58:23;8.20;99.90
5286;DHT22;2665;53.112;7.358;2023-05-17T05:00:50;8.20;99.90
5286;DHT22;2665;53.112;7.358;2023-05-17T05:03:15;8.20;99.90
5286;DHT22;2665;53.112;7.358;2023-05-17T05:05:41;8.20;99.90
5286;DHT22;2665;53.112;7.358;2023-05-17T05:08:08;8.30;99.90
5286;DHT22;2665;53.112;7.358;2023-05-17T05:10:33;8.40;99.90
5286;DHT22;2665;53.112;7.358;2023-05-17T05:12:59;8.50;22.10
5286;DHT22;2665;53.112;7.358;2023-05-17T05:15:25;8.70;9.50
5286;DHT22;2665;53.112;7.358;2023-05-17T05:17:51;8.80;1.00
5286;DHT22;2665;53.112;7.358;2023-05-17T05:20:16;8.90;1.00
5286;DHT22;2665;53.112;7.358;2023-05-17T05:22:42;9.00;1.00
5286;DHT22;2665;53.112;7.358;2023-05-17T05:25:08;9.00;1.00
5286;DHT22;2665;53.112;7.358;2023-05-17T05:27:34;9.10;1.00
5286;DHT22;2665;53.112;7.358;2023-05-17T05:30:00;9.10;1.00
5286;DHT22;2665;53.112;7.358;2023-05-17T05:32:26;9.20;1.00
5286;DHT22;2665;53.112;7.358;2023-05-17T05:34:52;9.20;1.00
5286;DHT22;2665;53.112;7.358;2023-05-17T05:37:17;9.30;1.00
5286;DHT22;2665;53.112;7.358;2023-05-17T05:39:44;9.30;99.90
5286;DHT22;2665;53.112;7.358;2023-05-17T05:42:10;9.30;99.90
5286;DHT22;2665;53.112;7.358;2023-05-17T05:44:36;9.30;99.90
5286;DHT22;2665;53.112;7.358;2023-05-17T05:47:01;9.40;99.90
5286;DHT22;2665;53.112;7.358;2023-05-17T05:49:27;9.30;99.90
5286;DHT22;2665;53.112;7.358;2023-05-17T05:51:53;9.30;99.90
5286;DHT22;2665;53.112;7.358;2023-05-17T05:54:18;9.40;99.90
5286;DHT22;2665;53.112;7.358;2023-05-17T05:56:44;9.40;99.90
5286;DHT22;2665;53.112;7.358;2023-05-17T05:59:10;9.40;99.90
5286;DHT22;2665;53.112;7.358;2023-05-17T06:01:36;9.40;99.90
5286;DHT22;2665;53.112;7.358;2023-05-17T06:04:02;9.30;99.90
5286;DHT22;2665;53.112;7.358;2023-05-17T06:06:28;9.30;99.90
5286;DHT22;2665;53.112;7.358;2023-05-17T06:08:53;9.20;99.90
5286;DHT22;2665;53.112;7.358;2023-05-17T06:11:19;9.20;99.90
5286;DHT22;2665;53.112;7.358;2023-05-17T06:13:45;9.20;99.90
5286;DHT22;2665;53.112;7.358;2023-05-17T06:16:11;9.20;99.90
5286;DHT22;2665;53.112;7.358;2023-05-17T06:18:37;9.20;99.90
5286;DHT22;2665;53.112;7.358;2023-05-17T06:21:02;9.20;99.90
5286;DHT22;2665;53.112;7.358;2023-05-17T06:23:28;9.30;99.90
5286;DHT22;2665;53.112;7.358;2023-05-17T06:25:54;9.40;99.90
5286;DHT22;2665;53.112;7.358;2023-05-17T06:28:20;9.50;99.90
5286;DHT22;2665;53.112;7.358;2023-05-17T06:30:45;9.50;99.90
5286;DHT22;2665;53.112;7.358;2023-05-17T06:33:11;9.50;99.90
5286;DHT22;2665;53.112;7.358;2023-05-17T06:35:37;9.50;99.90
5286;DHT22;2665;53.112;7.358;2023-05-17T06:38:03;9.60;99.90
5286;DHT22;2665;53.112;7.358;2023-05-17T06:40:28;9.70;99.90
5286;DHT22;2665;53.112;7.358;2023-05-17T06:42:54;9.80;99.90
5286;DHT22;2665;53.112;7.358;2023-05-17T06:45:20;9.80;99.90
5286;DHT22;2665;53.112;7.358;2023-05-17T06:47:46;9.70;99.90
5286;DHT22;2665;53.112;7.358;2023-05-17T06:50:12;9.80;99.90
5286;DHT22;2665;53.112;7.358;2023-05-17T06:52:38;9.80;99.90
5286;DHT22;2665;53.112;7.358;2023-05-17T06:55:04;10.00;99.90
5286;DHT22;2665;53.112;7.358;2023-05-17T06:57:30;10.20;99.90
5286;DHT22;2665;53.112;7.358;2023-05-17T06:59:56;10.40;99.90
5286;DHT22;2665;53.112;7.358;2023-05-17T07:02:21;10.50;99.90
5286;DHT22;2665;53.112;7.358;2023-05-17T07:04:47;10.60;99.90
5286;DHT22;2665;53.112;7.358;2023-05-17T07:07:12;10.70;99.90
5286;DHT22;2665;53.112;7.358;2023-05-17T07:09:38;10.70;99.90
5286;DHT22;2665;53.112;7.358;2023-05-17T07:12:04;10.80;99.90
5286;DHT22;2665;53.112;7.358;2023-05-17T07:14:30;10.70;99.90
5286;DHT22;2665;53.112;7.358;2023-05-17T07:16:57;10.60;99.90
5286;DHT22;2665;53.112;7.358;2023-05-17T07:19:23;10.60;99.90
5286;DHT22;2665;53.112;7.358;2023-05-17T07:21:50;10.70;99.90
5286;DHT22;2665;53.112;7.358;2023-05-17T07:24:16;10.80;99.90
5286;DHT22;2665;53.112;7.358;2023-05-17T07:26:42;10.90;99.90
5286;DHT22;2665;53.112;7.358;2023-05-17T07:29:08;11.00;99.90
5286;DHT22;2665;53.112;7.358;2023-05-17T07:31:34;11.00;99.90
5286;DHT22;2665;53.112;7.358;2023-05-17T07:34:00;11.00;99.90
5286;DHT22;2665;53.112;7.358;2023-05-17T07:36:26;11.00;99.90
5286;DHT22;2665;53.112;7.358;2023-05-17T07:38:55;11.00;99.90
5286;DHT22;2665;53.112;7.358;2023-05-17T07:41:21;11.00;99.90
5286;DHT22;2665;53.112;7.358;2023-05-17T07:43:48;11.00;99.90
5286;DHT22;2665;53.112;7.358;2023-05-17T07:46:14;11.00;99.90
5286;DHT22;2665;53.112;7.358;2023-05-17T07:48:40;10.90;99.90
5286;DHT22;2665;53.112;7.358;2023-05-17T07:51:06;10.90;99.90
5286;DHT22;2665;53.112;7.358;2023-05-17T07:53:32;10.80;99.90
5286;DHT22;2665;53.112;7.358;2023-05-17T07:55:57;10.70;99.90
5286;DHT22;2665;53.112;7.358;2023-05-17T07:58:23;10.70;99.90
5286;DHT22;2665;53.112;7.358;2023-05-17T08:00:49;10.60;99.90
5286;DHT22;2665;53.112;7.358;2023-05-17T08:03:14;10.50;99.90
5286;DHT22;2665;53.112;7.358;2023-05-17T08:05:40;10.50;99.90
5286;DHT22;2665;53.112;7.358;2023-05-17T08:08:06;10.40;99.90
5286;DHT22;2665;53.112;7.358;2023-05-17T08:10:33;10.50;99.90
5286;DHT22;2665;53.112;7.358;2023-05-17T08:13:00;10.60;99.90
5286;DHT22;2665;53.112;7.358;2023-05-17T08:15:26;10.60;99.90
5286;DHT22;2665;53.112;7.358;2023-05-17T08:17:51;10.60;99.90
5286;DHT22;2665;53.112;7.358;2023-05-17T08:20:17;10.60;99.90
5286;DHT22;2665;53.112;7.358;2023-05-17T08:22:43;10.50;99.90
5286;DHT22;2665;53.112;7.358;2023-05-17T08:25:08;10.50;99.90
5286;DHT22;2665;53.112;7.358;2023-05-17T08:27:34;10.50;99.90
5286;DHT22;2665;53.112;7.358;2023-05-17T08:30:00;10.40;99.90
5286;DHT22;2665;53.112;7.358;2023-05-17T08:32:25;10.40;99.90
5286;DHT22;2665;53.112;7.358;2023-05-17T08:34:51;10.30;99.90
5286;DHT22;2665;53.112;7.358;2023-05-17T08:37:17;10.30;99.90
5286;DHT22;2665;53.112;7.358;2023-05-17T08:39:43;10.30;99.90
5286;DHT22;2665;53.112;7.358;2023-05-17T08:42:09;10.40;99.90
5286;DHT22;2665;53.112;7.358;2023-05-17T08:44:35;10.50;99.90
5286;DHT22;2665;53.112;7.358;2023-05-17T08:47:02;10.70;99.90
5286;DHT22;2665;53.112;7.358;2023-05-17T08:49:29;10.80;99.90
5286;DHT22;2665;53.112;7.358;2023-05-17T08:51:59;10.90;99.90
5286;DHT22;2665;53.112;7.358;2023-05-17T08:54:26;10.90;99.90
5286;DHT22;2665;53.112;7.358;2023-05-17T08:56:54;11.00;99.90
5286;DHT22;2665;53.112;7.358;2023-05-17T08:59:23;11.10;99.90
5286;DHT22;2665;53.112;7.358;2023-05-17T19:17:38;9.80;99.90
5286;DHT22;2665;53.112;7.358;2023-05-17T19:20:05;9.70;99.90
5286;DHT22;2665;53.112;7.358;2023-05-17T19:22:30;9.60;99.90
5286;DHT22;2665;53.112;7.358;2023-05-17T19:24:56;9.60;99.90
5286;DHT22;2665;53.112;7.358;2023-05-17T19:27:22;9.60;99.90
5286;DHT22;2665;53.112;7.358;2023-05-17T19:29:47;9.50;99.90
5286;DHT22;2665;53.112;7.358;2023-05-17T19:32:13;9.50;99.90
5286;DHT22;2665;53.112;7.358;2023-05-17T19:34:39;9.50;99.90
5286;DHT22;2665;53.112;7.358;2023-05-17T19:37:04;9.40;99.90
5286;DHT22;2665;53.112;7.358;2023-05-17T19:39:30;9.40;99.90
5286;DHT22;2665;53.112;7.358;2023-05-17T19:41:56;9.40;99.90
5286;DHT22;2665;53.112;7.358;2023-05-17T19:44:21;9.30;99.90
5286;DHT22;2665;53.112;7.358;2023-05-17T19:46:47;9.30;99.90
5286;DHT22;2665;53.112;7.358;2023-05-17T19:49:12;9.20;99.90
5286;DHT22;2665;53.112;7.358;2023-05-17T19:51:38;9.20;99.90
5286;DHT22;2665;53.112;7.358;2023-05-17T19:54:04;9.20;99.90
5286;DHT22;2665;53.112;7.358;2023-05-17T19:56:30;9.20;99.90
5286;DHT22;2665;53.112;7.358;2023-05-17T19:58:56;9.10;99.90
5286;DHT22;2665;53.112;7.358;2023-05-17T20:01:22;9.10;99.90
5286;DHT22;2665;53.112;7.358;2023-05-17T20:03:47;9.10;99.90
5286;DHT22;2665;53.112;7.358;2023-05-17T20:06:13;9.00;99.90
5286;DHT22;2665;53.112;7.358;2023-05-17T20:08:39;8.90;99.90
5286;DHT22;2665;53.112;7.358;2023-05-17T20:11:05;8.80;99.90
5286;DHT22;2665;53.112;7.358;2023-05-17T20:13:32;8.80;99.90
5286;DHT22;2665;53.112;7.358;2023-05-17T20:15:59;8.70;99.90
5286;DHT22;2665;53.112;7.358;2023-05-17T20:18:24;8.60;99.90
5286;DHT22;2665;53.112;7.358;2023-05-17T20:20:52;8.50;99.90
5286;DHT22;2665;53.112;7.358;2023-05-17T20:23:22;8.50;99.90
5286;DHT22;2665;53.112;7.358;2023-05-17T20:25:48;8.40;99.90
5286;DHT22;2665;53.112;7.358;2023-05-17T20:28:14;8.30;99.90
5286;DHT22;2665;53.112;7.358;2023-05-17T20:30:43;8.20;99.90
5286;DHT22;2665;53.112;7.358;2023-05-17T20:33:09;8.10;99.90
5286;DHT22;2665;53.112;7.358;2023-05-17T20:35:34;8.00;99.90
5286;DHT22;2665;53.112;7.358;2023-05-17T20:38:00;7.90;99.90
5286;DHT22;2665;53.112;7.358;2023-05-17T20:40:26;7.90;99.90
5286;DHT22;2665;53.112;7.358;2023-05-17T20:42:51;7.90;99.90
5286;DHT22;2665;53.112;7.358;2023-05-17T20:45:18;7.80;99.90
5286;DHT22;2665;53.112;7.358;2023-05-17T20:47:43;7.90;99.90
5286;DHT22;2665;53.112;7.358;2023-05-17T20:50:09;7.90;99.90
5286;DHT22;2665;53.112;7.358;2023-05-17T20:52:36;7.90;99.90
5286;DHT22;2665;53.112;7.358;2023-05-17T20:55:02;8.00;99.90
5286;DHT22;2665;53.112;7.358;2023-05-17T20:57:28;8.00;99.90
5286;DHT22;2665;53.112;7.358;2023-05-17T20:59:54;8.00;99.90
5286;DHT22;2665;53.112;7.358;2023-05-17T21:02:19;8.00;99.90
5286;DHT22;2665;53.112;7.358;2023-05-17T21:04:49;8.10;99.90
5286;DHT22;2665;53.112;7.358;2023-05-17T21:07:17;8.10;99.90
5286;DHT22;2665;53.112;7.358;2023-05-17T21:09:44;8.10;99.90
5286;DHT22;2665;53.112;7.358;2023-05-17T21:12:12;8.10;99.90
5286;DHT22;2665;53.112;7.358;2023-05-17T21:14:37;8.10;99.90
5286;DHT22;2665;53.112;7.358;2023-05-17T21:17:03;8.10;99.90
5286;DHT22;2665;53.112;7.358;2023-05-17T21:19:29;8.10;99.90
5286;DHT22;2665;53.112;7.358;2023-05-17T21:21:54;8.10;99.90
5286;DHT22;2665;53.112;7.358;2023-05-17T21:24:21;8.10;99.90
5286;DHT22;2665;53.112;7.358;2023-05-17T21:26:47;8.10;99.90
5286;DHT22;2665;53.112;7.358;2023-05-17T21:29:12;8.00;99.90
5286;DHT22;2665;53.112;7.358;2023-05-17T21:31:38;8.00;1.00
5286;DHT22;2665;53.112;7.358;2023-05-17T21:34:03;8.00;1.00
5286;DHT22;2665;53.112;7.358;2023-05-17T21:36:29;8.00;1.00
5286;DHT22;2665;53.112;7.358;2023-05-17T21:38:55;8.00;99.90
5286;DHT22;2665;53.112;7.358;2023-05-17T21:41:21;7.90;99.90
5286;DHT22;2665;53.112;7.358;2023-05-17T21:43:47;8.00;99.90
5286;DHT22;2665;53.112;7.358;2023-05-17T21:46:13;8.00;99.90
5286;DHT22;2665;53.112;7.358;2023-05-17T21:48:39;8.00;99.90
5286;DHT22;2665;53.112;7.358;2023-05-17T21:51:04;8.00;99.90
5286;DHT22;2665;53.112;7.358;2023-05-17T21:53:30;8.00;99.90
5286;DHT22;2665;53.112;7.358;2023-05-17T21:55:55;8.00;99.90
5286;DHT22;2665;53.112;7.358;2023-05-17T21:58:21;8.00;99.90
5286;DHT22;2665;53.112;7.358;2023-05-17T22:00:47;8.00;99.90
5286;DHT22;2665;53.112;7.358;2023-05-17T22:03:12;7.90;99.90
5286;DHT22;2665;53.112;7.358;2023-05-17T22:05:38;7.90;99.90
5286;DHT22;2665;53.112;7.358;2023-05-17T22:08:04;7.90;99.90
5286;DHT22;2665;53.112;7.358;2023-05-17T22:10:30;7.90;1.00
5286;DHT22;2665;53.112;7.358;2023-05-17T22:12:57;7.80;1.00
5286;DHT22;2665;53.112;7.358;2023-05-17T22:15:22;7.80;1.00
5286;DHT22;2665;53.112;7.358;2023-05-17T22:17:48;7.80;1.00
5286;DHT22;2665;53.112;7.358;2023-05-17T22:20:14;7.70;1.00
5286;DHT22;2665;53.112;7.358;2023-05-17T22:22:41;7.70;1.00
5286;DHT22;2665;53.112;7.358;2023-05-17T22:25:07;7.70;1.00
5286;DHT22;2665;53.112;7.358;2023-05-17T22:27:33;7.70;1.00
5286;DHT22;2665;53.112;7.358;2023-05-17T22:29:59;7.70;1.00
5286;DHT22;2665;53.112;7.358;2023-05-17T22:32:25;7.70;1.00
5286;DHT22;2665;53.112;7.358;2023-05-17T22:34:50;7.70;1.00
5286;DHT22;2665;53.112;7.358;2023-05-17T22:37:17;7.80;1.00
5286;DHT22;2665;53.112;7.358;2023-05-17T22:39:46;7.70;1.00
5286;DHT22;2665;53.112;7.358;2023-05-17T22:42:12;7.70;1.00
5286;DHT22;2665;53.112;7.358;2023-05-17T22:44:38;7.70;1.00
5286;DHT22;2665;53.112;7.358;2023-05-17T22:47:03;7.70;1.00
5286;DHT22;2665;53.112;7.358;2023-05-17T22:49:30;7.70;1.00
5286;DHT22;2665;53.112;7.358;2023-05-17T22:52:02;7.70;1.00
5286;DHT22;2665;53.112;7.358;2023-05-17T22:54:33;7.70;1.00
5286;DHT22;2665;53.112;7.358;2023-05-17T22:56:59;7.70;1.00
5286;DHT22;2665;53.112;7.358;2023-05-17T22:59:25;7.80;1.00
5286;DHT22;2665;53.112;7.358;2023-05-17T23:01:51;7.70;1.00
5286;DHT22;2665;53.112;7.358;2023-05-17T23:04:17;7.70;1.00
5286;DHT22;2665;53.112;7.358;2023-05-17T23:06:42;7.60;1.00
5286;DHT22;2665;53.112;7.358;2023-05-17T23:09:08;7.60;1.00
5286;DHT22;2665;53.112;7.358;2023-05-17T23:11:33;7.60;1.00
5286;DHT22;2665;53.112;7.358;2023-05-17T23:13:59;7.50;1.00
5286;DHT22;2665;53.112;7.358;2023-05-17T23:16:26;7.50;1.00
5286;DHT22;2665;53.112;7.358;2023-05-17T23:18:53;7.50;1.00
5286;DHT22;2665;53.112;7.358;2023-05-17T23:21:19;7.40;1.00
5286;DHT22;2665;53.112;7.358;2023-05-17T23:23:45;7.40;1.00
5286;DHT22;2665;53.112;7.358;2023-05-17T23:26:12;7.40;1.00
5286;DHT22;2665;53.112;7.358;2023-05-17T23:28:42;7.30;1.00
5286;DHT22;2665;53.112;7.358;2023-05-17T23:31:08;7.30;1.00
5286;DHT22;2665;53.112;7.358;2023-05-17T23:33:34;7.30;1.00
5286;DHT22;2665;53.112;7.358;2023-05-17T23:35:59;7.20;1.00
5286;DHT22;2665;53.112;7.358;2023-05-17T23:38:25;7.20;1.00
5286;DHT22;2665;53.112;7.358;2023-05-17T23:40:51;7.20;1.00
5286;DHT22;2665;53.112;7.358;2023-05-17T23:43:17;7.20;1.00
5286;DHT22;2665;53.112;7.358;2023-05-17T23:45:42;7.20;1.00
5286;DHT22;2665;53.112;7.358;2023-05-17T23:48:08;7.10;1.00
5286;DHT22;2665;53.112;7.358;2023-05-17T23:50:34;7.10;1.00
5286;DHT22;2665;53.112;7.358;2023-05-17T23:53:00;7.00;2.30
5286;DHT22;2665;53.112;7.358;2023-05-17T23:55:31;6.90;4.20
5286;DHT22;2665;53.112;7.358;2023-05-17T23:57:56;6.90;50.10
